Time;durP1;ratioP1;P1;durP2;ratioP2;P2;SDS_P1;SDS_P2;PMS_P1;PMS_P2;Temp;Humidity;BMP_temperature;BMP_pressure;BME280_temperature;BME280_humidity;BME280_pressure;Samples;Min_cycle;Max_cycle;Signal;HPM_P1;HPM_P2
2023/09/06 00:01:33;;;;;;;;;;;20.70;99.90;;;;;;5052242;28;20426;-68
2023/09/06 00:04:01;;;;;;;;;;;20.60;99.90;;;;;;5067312;28;20395;-69
2023/09/06 00:06:30;;;;;;;;;;;20.70;99.90;;;;;;5066071;28;19978;-69
2023/09/06 00:08:58;;;;;;;;;;;20.80;99.90;;;;;;5051365;28;19929;-69
2023/09/06 00:11:27;;;;;;;;;;;20.70;99.90;;;;;;5050626;28;19928;-69
2023/09/06 00:13:55;;;;;;;;;;;20.70;99.90;;;;;;5045447;28;19925;-68
2023/09/06 00:16:24;;;;;;;;;;;20.60;99.90;;;;;;5050314;28;19937;-68
2023/09/06 00:18:52;;;;;;;;;;;20.60;99.90;;;;;;5047799;28;19925;-69
2023/09/06 00:21:21;;;;;;;;;;;20.60;99.90;;;;;;5043332;28;20439;-70
2023/09/06 00:23:49;;;;;;;;;;;20.50;99.90;;;;;;5047233;28;19968;-68
2023/09/06 00:26:17;;;;;;;;;;;20.50;99.90;;;;;;5059061;28;19947;-69
2023/09/06 00:28:45;;;;;;;;;;;20.50;99.90;;;;;;5063308;28;19931;-69
2023/09/06 00:31:13;;;;;;;;;;;20.50;99.90;;;;;;5050251;28;19955;-69
2023/09/06 00:33:44;;;;;;;;;;;20.50;99.90;;;;;;5064203;28;20023;-69
2023/09/06 00:36:12;;;;;;;;;;;20.50;99.90;;;;;;5050999;28;19928;-67
2023/09/06 00:38:39;;;;;;;;;;;20.60;99.90;;;;;;5057437;28;19929;-68
2023/09/06 00:41:07;;;;;;;;;;;20.60;99.90;;;;;;5070732;28;19925;-68
2023/09/06 00:43:35;;;;;;;;;;;20.60;99.90;;;;;;5056220;28;19990;-68
2023/09/06 00:46:07;;;;;;;;;;;20.60;99.90;;;;;;5059074;28;19932;-67
2023/09/06 00:48:36;;;;;;;;;;;20.60;99.90;;;;;;5046337;28;19924;-68
2023/09/06 00:51:07;;;;;;;;;;;20.50;99.90;;;;;;5058047;28;19929;-68
2023/09/06 00:53:35;;;;;;;;;;;20.50;99.90;;;;;;5050906;28;19976;-68
2023/09/06 00:56:04;;;;;;;;;;;20.50;99.90;;;;;;5050787;28;19928;-67
2023/09/06 00:58:32;;;;;;;;;;;20.50;99.90;;;;;;5049677;28;19959;-68
2023/09/06 01:01:00;;;;;;;;;;;20.40;99.90;;;;;;5043901;28;19933;-67
2023/09/06 01:03:28;;;;;;;;;;;20.40;99.90;;;;;;5044026;28;19925;-68
2023/09/06 01:05:59;;;;;;;;;;;20.40;99.90;;;;;;5040857;28;19925;-68
2023/09/06 01:08:30;;;;;;;;;;;20.50;99.90;;;;;;5060824;28;19924;-69
2023/09/06 01:11:11;;;;;;;;;;;20.50;99.90;;;;;;5049306;28;19925;-67
2023/09/06 01:13:39;;;;;;;;;;;20.50;99.90;;;;;;5057876;28;19929;-69
2023/09/06 01:16:07;;;;;;;;;;;20.50;99.90;;;;;;5048658;28;20388;-68
2023/09/06 01:18:35;;;;;;;;;;;20.50;99.90;;;;;;5057003;28;20837;-68
2023/09/06 01:21:06;;;;;;;;;;;20.50;99.90;;;;;;5050098;28;20445;-68
2023/09/06 01:23:35;;;;;;;;;;;20.40;99.90;;;;;;5049248;28;19925;-68
2023/09/06 01:26:03;;;;;;;;;;;20.40;99.90;;;;;;5051662;28;20388;-69
2023/09/06 01:28:32;;;;;;;;;;;20.30;99.90;;;;;;5058603;28;19932;-68
2023/09/06 01:31:00;;;;;;;;;;;20.20;99.90;;;;;;5061584;28;19929;-70
2023/09/06 01:33:28;;;;;;;;;;;20.20;99.90;;;;;;5059674;28;19925;-68
2023/09/06 01:35:56;;;;;;;;;;;20.30;99.90;;;;;;5044564;28;19971;-68
2023/09/06 01:38:24;;;;;;;;;;;20.20;99.90;;;;;;5052789;28;20311;-68
2023/09/06 01:40:54;;;;;;;;;;;20.20;99.90;;;;;;5059134;28;19930;-68
2023/09/06 01:43:22;;;;;;;;;;;20.20;99.90;;;;;;5060176;28;19943;-68
2023/09/06 01:45:51;;;;;;;;;;;20.20;99.90;;;;;;5060326;28;19924;-67
2023/09/06 01:48:20;;;;;;;;;;;20.20;99.90;;;;;;5055863;28;20281;-68
2023/09/06 01:50:48;;;;;;;;;;;20.30;99.90;;;;;;5048714;28;19925;-68
2023/09/06 01:53:16;;;;;;;;;;;20.10;99.90;;;;;;5050926;28;19931;-68
2023/09/06 01:55:44;;;;;;;;;;;20.10;99.90;;;;;;5052788;28;19924;-69
2023/09/06 01:58:13;;;;;;;;;;;20.20;99.90;;;;;;5051453;28;20050;-68
2023/09/06 02:00:41;;;;;;;;;;;20.10;99.90;;;;;;5051356;28;19929;-70
2023/09/06 02:03:10;;;;;;;;;;;20.20;99.90;;;;;;5060088;28;20447;-68
2023/09/06 02:05:39;;;;;;;;;;;20.00;99.90;;;;;;5046549;28;19929;-68
2023/09/06 02:08:07;;;;;;;;;;;19.90;99.90;;;;;;5055016;28;19925;-69
2023/09/06 02:10:35;;;;;;;;;;;19.90;99.90;;;;;;5056722;28;20396;-68
2023/09/06 02:13:03;;;;;;;;;;;19.70;99.90;;;;;;5042731;28;20428;-70
2023/09/06 02:15:32;;;;;;;;;;;19.50;99.90;;;;;;5054598;28;19924;-68
2023/09/06 02:18:00;;;;;;;;;;;19.30;99.90;;;;;;5062921;28;19933;-69
2023/09/06 02:20:28;;;;;;;;;;;19.20;99.90;;;;;;5053081;28;19959;-68
2023/09/06 02:22:57;;;;;;;;;;;19.20;99.90;;;;;;5050870;28;20392;-70
2023/09/06 02:25:25;;;;;;;;;;;19.00;99.90;;;;;;5055374;28;20288;-69
2023/09/06 02:27:53;;;;;;;;;;;19.20;99.90;;;;;;5056162;28;20395;-69
2023/09/06 02:30:21;;;;;;;;;;;19.40;99.90;;;;;;5050011;28;20363;-68
2023/09/06 02:32:51;;;;;;;;;;;19.30;99.90;;;;;;5044090;28;20388;-69
2023/09/06 02:35:20;;;;;;;;;;;19.40;99.90;;;;;;5060632;28;20418;-69
2023/09/06 02:37:48;;;;;;;;;;;19.40;99.90;;;;;;5052391;28;19925;-69
2023/09/06 02:40:18;;;;;;;;;;;19.40;99.90;;;;;;5059916;28;19979;-69
2023/09/06 02:42:48;;;;;;;;;;;19.40;99.90;;;;;;5057991;28;19978;-69
2023/09/06 02:45:16;;;;;;;;;;;19.20;99.90;;;;;;5046862;28;20308;-69
2023/09/06 02:47:48;;;;;;;;;;;19.20;99.90;;;;;;5053138;28;20001;-71
2023/09/06 02:50:21;;;;;;;;;;;19.30;99.90;;;;;;5052481;28;19956;-69
2023/09/06 02:52:52;;;;;;;;;;;19.40;99.90;;;;;;5050972;28;19932;-69
2023/09/06 02:55:20;;;;;;;;;;;19.60;99.90;;;;;;5049732;28;19931;-69
2023/09/06 02:57:49;;;;;;;;;;;19.80;99.90;;;;;;5049811;28;20035;-67
2023/09/06 03:00:24;;;;;;;;;;;19.80;99.90;;;;;;5052555;28;19968;-68
2023/09/06 03:02:52;;;;;;;;;;;19.90;99.90;;;;;;5053859;28;19932;-68
2023/09/06 03:05:22;;;;;;;;;;;19.70;99.90;;;;;;5044638;28;19963;-68
2023/09/06 03:07:53;;;;;;;;;;;19.80;99.90;;;;;;5046388;28;20474;-68
2023/09/06 03:10:23;;;;;;;;;;;19.80;99.90;;;;;;5049119;28;19925;-68
2023/09/06 03:12:55;;;;;;;;;;;19.90;99.90;;;;;;5049581;28;20420;-69
2023/09/06 03:15:23;;;;;;;;;;;19.90;99.90;;;;;;5052395;28;20566;-68
2023/09/06 03:17:53;;;;;;;;;;;19.90;99.90;;;;;;5042327;28;19925;-70
2023/09/06 03:20:31;;;;;;;;;;;19.90;99.90;;;;;;5045579;28;20027;-70
2023/09/06 03:23:00;;;;;;;;;;;19.90;99.90;;;;;;5047147;28;20023;-70
2023/09/06 03:25:28;;;;;;;;;;;19.90;99.90;;;;;;5053028;28;19968;-68
2023/09/06 03:28:00;;;;;;;;;;;19.90;99.90;;;;;;5048705;28;19925;-68
2023/09/06 03:30:30;;;;;;;;;;;19.80;99.90;;;;;;5059956;28;19951;-71
2023/09/06 03:32:58;;;;;;;;;;;19.70;99.90;;;;;;5048578;28;19929;-69
2023/09/06 03:35:27;;;;;;;;;;;19.70;99.90;;;;;;5044332;28;19932;-69
2023/09/06 03:37:55;;;;;;;;;;;19.70;99.90;;;;;;5044415;28;19979;-69
2023/09/06 03:40:34;;;;;;;;;;;19.80;99.90;;;;;;5050885;28;20312;-69
2023/09/06 03:43:05;;;;;;;;;;;19.90;99.90;;;;;;5051779;28;19997;-70
2023/09/06 03:45:34;;;;;;;;;;;19.70;99.90;;;;;;5050215;28;19935;-70
2023/09/06 03:48:04;;;;;;;;;;;19.70;99.90;;;;;;5055052;28;19933;-69
2023/09/06 03:50:34;;;;;;;;;;;19.70;99.90;;;;;;5043116;28;19941;-69
2023/09/06 03:53:04;;;;;;;;;;;19.60;99.90;;;;;;5046456;28;19936;-68
2023/09/06 03:55:32;;;;;;;;;;;19.60;99.90;;;;;;5054224;28;19925;-69
2023/09/06 03:58:07;;;;;;;;;;;19.60;99.90;;;;;;5044965;28;20008;-68
2023/09/06 04:00:39;;;;;;;;;;;19.60;99.90;;;;;;5048428;28;19932;-68
2023/09/06 04:03:08;;;;;;;;;;;19.60;99.90;;;;;;5045867;28;19925;-68
2023/09/06 04:05:40;;;;;;;;;;;19.60;99.90;;;;;;5050526;28;20454;-68
2023/09/06 04:08:09;;;;;;;;;;;19.70;99.90;;;;;;5048453;28;19929;-68
2023/09/06 04:10:38;;;;;;;;;;;19.70;99.90;;;;;;5044556;28;20276;-69
2023/09/06 04:13:06;;;;;;;;;;;19.60;99.90;;;;;;5049764;28;19929;-69
2023/09/06 04:15:35;;;;;;;;;;;19.70;99.90;;;;;;5059213;28;20529;-70
2023/09/06 04:18:03;;;;;;;;;;;19.70;99.90;;;;;;5069810;28;20042;-68
2023/09/06 04:20:35;;;;;;;;;;;19.60;99.90;;;;;;5041363;28;20387;-67
2023/09/06 04:23:05;;;;;;;;;;;19.60;99.90;;;;;;5037627;28;19968;-67
2023/09/06 04:25:34;;;;;;;;;;;19.60;99.90;;;;;;5038985;28;20676;-68
2023/09/06 04:28:07;;;;;;;;;;;19.50;99.90;;;;;;5038532;28;19939;-67
2023/09/06 04:30:35;;;;;;;;;;;19.60;99.90;;;;;;5035720;28;19933;-67
2023/09/06 04:33:04;;;;;;;;;;;19.60;99.90;;;;;;5036953;28;20039;-67
2023/09/06 04:35:33;;;;;;;;;;;19.70;99.90;;;;;;5036609;28;20047;-67
2023/09/06 04:38:02;;;;;;;;;;;19.60;99.90;;;;;;5037664;28;20561;-68
2023/09/06 04:40:31;;;;;;;;;;;19.40;99.90;;;;;;5035476;28;19933;-68
2023/09/06 04:42:59;;;;;;;;;;;19.10;99.90;;;;;;5038232;28;19959;-67
2023/09/06 04:45:27;;;;;;;;;;;19.00;99.90;;;;;;5038206;28;19925;-67
2023/09/06 04:47:56;;;;;;;;;;;18.80;99.90;;;;;;5037961;28;19936;-67
2023/09/06 04:50:24;;;;;;;;;;;18.60;99.90;;;;;;5034257;28;20020;-67
2023/09/06 04:52:52;;;;;;;;;;;18.60;99.90;;;;;;5037391;28;20545;-67
2023/09/06 04:55:21;;;;;;;;;;;18.70;99.90;;;;;;5038542;28;19928;-67
2023/09/06 04:57:50;;;;;;;;;;;18.50;99.90;;;;;;5037128;28;19936;-70
2023/09/06 05:00:23;;;;;;;;;;;18.60;99.90;;;;;;5035643;28;19929;-69
2023/09/06 05:02:52;;;;;;;;;;;18.80;99.90;;;;;;5036624;28;20868;-70
2023/09/06 05:05:21;;;;;;;;;;;18.70;99.90;;;;;;5037376;28;19932;-70
2023/09/06 05:07:49;;;;;;;;;;;18.90;99.90;;;;;;5038099;28;19956;-69
2023/09/06 05:10:16;;;;;;;;;;;19.00;99.90;;;;;;5036722;28;19958;-69
2023/09/06 05:12:45;;;;;;;;;;;19.00;99.90;;;;;;5035713;28;19932;-70
2023/09/06 05:15:14;;;;;;;;;;;19.00;99.90;;;;;;5039075;28;19939;-69
2023/09/06 05:17:42;;;;;;;;;;;19.00;99.90;;;;;;5038864;28;19936;-69
2023/09/06 05:20:27;;;;;;;;;;;19.20;99.90;;;;;;5034491;28;20460;-70
2023/09/06 05:22:56;;;;;;;;;;;19.30;99.90;;;;;;5037687;28;20011;-71
2023/09/06 05:25:24;;;;;;;;;;;19.20;99.90;;;;;;5037526;28;20022;-70
2023/09/06 05:27:55;;;;;;;;;;;19.20;99.90;;;;;;5038493;28;19933;-69
2023/09/06 05:30:24;;;;;;;;;;;19.00;99.90;;;;;;5020416;28;19935;-70
2023/09/06 05:32:52;;;;;;;;;;;18.70;99.90;;;;;;5037018;28;19948;-69
2023/09/06 05:35:20;;;;;;;;;;;18.50;99.90;;;;;;5038153;28;19928;-70
2023/09/06 05:37:48;;;;;;;;;;;18.40;99.90;;;;;;5035099;28;19929;-69
2023/09/06 05:40:17;;;;;;;;;;;18.30;99.90;;;;;;5035148;28;20437;-69
2023/09/06 05:42:44;;;;;;;;;;;18.10;99.90;;;;;;5037325;28;19933;-70
2023/09/06 05:45:13;;;;;;;;;;;18.00;99.90;;;;;;5037549;28;19929;-70
2023/09/06 05:47:44;;;;;;;;;;;17.90;99.90;;;;;;5038710;28;20439;-69
2023/09/06 05:50:12;;;;;;;;;;;18.00;99.90;;;;;;5036461;28;19936;-69
2023/09/06 05:52:40;;;;;;;;;;;17.80;99.90;;;;;;5038098;28;19937;-70
2023/09/06 05:55:10;;;;;;;;;;;17.80;99.90;;;;;;5037937;28;19937;-69
2023/09/06 05:57:38;;;;;;;;;;;17.80;99.90;;;;;;5037127;28;20470;-69
2023/09/06 06:00:12;;;;;;;;;;;17.80;99.90;;;;;;5038004;28;19933;-70
2023/09/06 06:02:41;;;;;;;;;;;17.80;99.90;;;;;;5038737;28;19979;-70
2023/09/06 06:05:12;;;;;;;;;;;18.00;99.90;;;;;;5044308;28;19960;-70
2023/09/06 06:07:40;;;;;;;;;;;18.00;99.90;;;;;;5052423;28;19925;-69
2023/09/06 06:10:09;;;;;;;;;;;18.10;99.90;;;;;;5052900;28;19932;-70
2023/09/06 06:12:38;;;;;;;;;;;18.10;99.90;;;;;;5053246;28;19929;-70
2023/09/06 06:15:08;;;;;;;;;;;18.10;99.90;;;;;;5061438;28;20020;-71
2023/09/06 06:17:36;;;;;;;;;;;18.30;99.90;;;;;;5053148;28;19929;-70
2023/09/06 06:20:06;;;;;;;;;;;18.30;99.90;;;;;;5056572;28;19932;-69
2023/09/06 06:22:37;;;;;;;;;;;18.40;99.90;;;;;;5049832;28;19925;-70
2023/09/06 06:25:06;;;;;;;;;;;18.50;99.90;;;;;;5041013;28;20406;-69
2023/09/06 06:27:34;;;;;;;;;;;18.60;99.90;;;;;;5048341;28;19971;-67
2023/09/06 06:30:05;;;;;;;;;;;18.60;99.90;;;;;;5049044;28;20289;-66
2023/09/06 06:32:33;;;;;;;;;;;18.70;99.90;;;;;;5051540;28;20023;-66
2023/09/06 06:35:05;;;;;;;;;;;18.70;99.90;;;;;;5064721;28;19931;-66
2023/09/06 06:37:33;;;;;;;;;;;18.80;99.90;;;;;;5056110;28;20008;-67
2023/09/06 06:40:02;;;;;;;;;;;18.80;99.90;;;;;;5053031;28;19948;-67
2023/09/06 06:42:32;;;;;;;;;;;18.90;99.90;;;;;;5053221;28;19932;-67
2023/09/06 06:44:59;;;;;;;;;;;19.10;99.90;;;;;;5053123;28;19932;-67
2023/09/06 06:47:27;;;;;;;;;;;19.10;99.90;;;;;;5053272;28;19925;-67
2023/09/06 06:49:55;;;;;;;;;;;19.20;99.90;;;;;;5053192;28;19978;-66
2023/09/06 06:52:23;;;;;;;;;;;19.30;99.90;;;;;;5052839;28;19994;-66
2023/09/06 06:54:51;;;;;;;;;;;19.30;99.90;;;;;;5051040;28;20004;-67
2023/09/06 06:57:20;;;;;;;;;;;19.40;99.90;;;;;;5047745;28;20015;-67
2023/09/06 06:59:48;;;;;;;;;;;19.40;99.90;;;;;;5052761;28;20284;-67
2023/09/06 07:02:16;;;;;;;;;;;19.40;99.90;;;;;;5052869;28;19931;-67
2023/09/06 07:04:43;;;;;;;;;;;19.50;99.90;;;;;;5052531;28;19925;-66
2023/09/06 07:07:12;;;;;;;;;;;19.60;99.90;;;;;;5053318;28;19964;-67
2023/09/06 07:09:40;;;;;;;;;;;19.60;99.90;;;;;;5051835;28;19928;-67
2023/09/06 07:12:07;;;;;;;;;;;19.60;99.90;;;;;;5052079;28;20403;-67
2023/09/06 07:14:37;;;;;;;;;;;19.60;99.90;;;;;;5052298;28;19931;-67
2023/09/06 07:17:05;;;;;;;;;;;19.70;99.90;;;;;;5052708;28;20406;-67
2023/09/06 07:19:33;;;;;;;;;;;19.80;99.90;;;;;;5052076;28;19925;-64
2023/09/06 07:22:03;;;;;;;;;;;20.00;99.90;;;;;;5052218;28;19928;-64
2023/09/06 07:24:31;;;;;;;;;;;20.10;99.90;;;;;;5060698;28;19929;-64
2023/09/06 07:26:58;;;;;;;;;;;20.20;99.90;;;;;;5044629;28;19974;-64
2023/09/06 07:29:26;;;;;;;;;;;20.30;99.90;;;;;;5052662;28;19931;-65
2023/09/06 07:31:56;;;;;;;;;;;20.40;99.90;;;;;;5052063;28;20347;-63
2023/09/06 07:34:23;;;;;;;;;;;20.50;99.90;;;;;;5052017;28;20307;-64
2023/09/06 07:36:51;;;;;;;;;;;20.60;99.90;;;;;;5052144;28;19941;-64
2023/09/06 07:39:19;;;;;;;;;;;20.70;99.90;;;;;;5052172;28;20395;-64
2023/09/06 07:41:48;;;;;;;;;;;20.70;99.90;;;;;;5051764;28;19925;-64
2023/09/06 07:44:16;;;;;;;;;;;20.70;99.90;;;;;;5052047;28;19925;-64
2023/09/06 07:46:48;;;;;;;;;;;20.80;99.90;;;;;;5056015;28;19932;-64
2023/09/06 07:49:18;;;;;;;;;;;21.00;99.90;;;;;;5048742;28;19924;-65
2023/09/06 07:51:46;;;;;;;;;;;21.00;99.90;;;;;;5051914;28;19924;-64
2023/09/06 07:54:14;;;;;;;;;;;21.10;99.90;;;;;;5051529;28;19932;-64
2023/09/06 07:56:42;;;;;;;;;;;21.20;99.90;;;;;;5059995;28;19929;-64
2023/09/06 07:59:11;;;;;;;;;;;21.40;99.90;;;;;;5051975;28;20016;-64
2023/09/06 08:01:38;;;;;;;;;;;21.40;99.90;;;;;;5048817;28;19932;-65
2023/09/06 08:04:06;;;;;;;;;;;21.40;99.90;;;;;;5051599;28;19925;-65
2023/09/06 08:06:36;;;;;;;;;;;21.50;99.90;;;;;;5051684;28;19924;-64
2023/09/06 08:09:04;;;;;;;;;;;21.50;99.90;;;;;;5051742;28;19925;-64
2023/09/06 08:11:33;;;;;;;;;;;21.60;99.90;;;;;;5050882;28;22482;-64
2023/09/06 08:14:01;;;;;;;;;;;21.80;99.90;;;;;;5050857;28;20330;-64
2023/09/06 08:16:29;;;;;;;;;;;22.00;99.90;;;;;;5050926;28;19925;-65
2023/09/06 08:18:57;;;;;;;;;;;22.00;99.90;;;;;;5051314;28;19932;-65
2023/09/06 08:21:28;;;;;;;;;;;22.10;99.90;;;;;;5050477;28;19968;-64
2023/09/06 08:23:57;;;;;;;;;;;22.30;99.90;;;;;;5050732;28;19925;-64
2023/09/06 08:26:25;;;;;;;;;;;22.40;99.90;;;;;;5059664;28;19931;-65
2023/09/06 08:28:56;;;;;;;;;;;22.60;99.90;;;;;;5051248;28;19928;-64
2023/09/06 08:31:24;;;;;;;;;;;22.80;99.90;;;;;;5051007;28;19967;-65
2023/09/06 08:33:52;;;;;;;;;;;23.10;99.90;;;;;;5047330;28;19925;-66
2023/09/06 08:36:20;;;;;;;;;;;23.40;99.90;;;;;;5051319;28;19928;-64
2023/09/06 08:38:48;;;;;;;;;;;23.60;99.90;;;;;;5051078;28;20387;-65
2023/09/06 08:41:18;;;;;;;;;;;23.80;99.90;;;;;;5051103;28;19982;-64
2023/09/06 08:43:46;;;;;;;;;;;23.80;99.90;;;;;;5050821;28;19936;-64
2023/09/06 08:46:17;;;;;;;;;;;24.00;99.90;;;;;;5051141;28;20003;-64
2023/09/06 08:48:46;;;;;;;;;;;24.10;99.90;;;;;;5051066;28;19929;-65
2023/09/06 08:51:14;;;;;;;;;;;24.20;99.90;;;;;;5050981;28;19932;-64
2023/09/06 08:53:43;;;;;;;;;;;24.40;99.90;;;;;;5049524;28;19932;-65
2023/09/06 08:56:14;;;;;;;;;;;24.40;99.90;;;;;;5058553;28;19932;-65
2023/09/06 08:58:44;;;;;;;;;;;24.40;99.90;;;;;;5050984;28;20336;-65
2023/09/06 09:01:12;;;;;;;;;;;24.50;99.90;;;;;;5051026;28;20379;-65
2023/09/06 09:03:40;;;;;;;;;;;24.60;99.90;;;;;;5050858;28;20383;-65
2023/09/06 09:06:09;;;;;;;;;;;24.70;99.90;;;;;;5050821;28;19925;-65
2023/09/06 09:08:37;;;;;;;;;;;24.90;99.90;;;;;;5050309;28;19925;-65
2023/09/06 09:11:12;;;;;;;;;;;25.20;99.90;;;;;;5050760;28;19925;-65
2023/09/06 09:13:40;;;;;;;;;;;25.60;99.90;;;;;;5050706;28;19925;-67
2023/09/06 09:16:09;;;;;;;;;;;25.80;99.90;;;;;;5042695;28;19932;-67
2023/09/06 09:18:38;;;;;;;;;;;26.00;99.90;;;;;;5050735;28;19925;-68
2023/09/06 09:21:09;;;;;;;;;;;26.10;99.90;;;;;;5050469;28;20390;-68
2023/09/06 09:23:43;;;;;;;;;;;26.30;99.90;;;;;;5050601;28;19929;-65
2023/09/06 09:26:11;;;;;;;;;;;26.40;99.90;;;;;;5042884;28;19925;-66
2023/09/06 09:28:41;;;;;;;;;;;26.40;99.90;;;;;;5075229;22;19924;-65
2023/09/06 09:31:13;;;;;;;;;;;26.40;99.90;;;;;;5046854;28;19925;-66
2023/09/06 09:33:43;;;;;;;;;;;26.50;99.90;;;;;;5041431;28;19955;-66
2023/09/06 09:36:11;;;;;;;;;;;26.80;99.90;;;;;;5046399;28;19931;-66
2023/09/06 09:38:41;;;;;;;;;;;27.00;99.90;;;;;;5047062;28;20410;-65
2023/09/06 09:41:09;;;;;;;;;;;27.00;99.90;;;;;;5045770;28;19925;-65
2023/09/06 09:43:37;;;;;;;;;;;27.10;99.90;;;;;;5054109;28;19932;-65
2023/09/06 09:46:05;;;;;;;;;;;27.20;99.90;;;;;;5043242;28;20327;-65
2023/09/06 09:48:36;;;;;;;;;;;27.20;99.90;;;;;;5038365;28;19961;-65
2023/09/06 09:51:07;;;;;;;;;;;27.50;99.90;;;;;;5044917;28;19925;-65
2023/09/06 09:53:36;;;;;;;;;;;27.80;99.90;;;;;;5053677;28;19931;-65
2023/09/06 09:56:06;;;;;;;;;;;27.80;99.90;;;;;;5051488;28;19925;-67
2023/09/06 09:58:34;;;;;;;;;;;27.80;99.90;;;;;;5042402;28;19925;-66
2023/09/06 10:01:05;;;;;;;;;;;27.90;99.90;;;;;;5043976;28;19940;-66
2023/09/06 10:03:34;;;;;;;;;;;28.30;99.90;;;;;;5040536;28;20316;-66
2023/09/06 10:06:04;;;;;;;;;;;28.20;98.30;;;;;;5040884;28;20464;-66
2023/09/06 10:08:33;;;;;;;;;;;28.40;98.20;;;;;;5045639;28;20380;-66
2023/09/06 10:11:00;;;;;;;;;;;28.40;97.30;;;;;;5043644;28;19925;-66
2023/09/06 10:13:29;;;;;;;;;;;28.80;98.00;;;;;;5042018;28;19926;-66
2023/09/06 10:15:57;;;;;;;;;;;28.80;97.20;;;;;;5043330;28;19929;-66
2023/09/06 10:18:25;;;;;;;;;;;29.00;96.20;;;;;;5041876;28;19929;-66
2023/09/06 10:20:54;;;;;;;;;;;28.90;96.80;;;;;;5041908;28;19948;-66
2023/09/06 10:23:23;;;;;;;;;;;28.80;96.10;;;;;;5048770;28;19979;-66
2023/09/06 10:25:52;;;;;;;;;;;28.80;95.40;;;;;;5049884;28;20387;-66
2023/09/06 10:28:20;;;;;;;;;;;28.80;95.70;;;;;;5042018;28;20408;-66
2023/09/06 10:30:51;;;;;;;;;;;29.10;95.00;;;;;;5041619;28;19925;-66
2023/09/06 10:33:41;;;;;;;;;;;29.30;95.10;;;;;;5037364;28;19924;-66
2023/09/06 10:36:10;;;;;;;;;;;29.30;94.60;;;;;;5042095;28;19925;-66
2023/09/06 10:39:14;;;;;;;;;;;29.40;93.80;;;;;;5041934;28;19933;-66
2023/09/06 10:41:57;;;;;;;;;;;29.50;93.70;;;;;;5040388;28;19939;-66
2023/09/06 10:44:25;;;;;;;;;;;29.60;92.90;;;;;;5036379;28;19975;-67
2023/09/06 10:46:53;;;;;;;;;;;29.30;93.20;;;;;;5044393;28;19925;-66
2023/09/06 10:49:23;;;;;;;;;;;29.30;93.80;;;;;;5041478;28;20319;-66
2023/09/06 10:51:57;;;;;;;;;;;29.30;93.70;;;;;;5041580;28;19933;-66
2023/09/06 10:54:34;;;;;;;;;;;29.30;93.10;;;;;;5052026;28;19924;-66
2023/09/06 10:57:03;;;;;;;;;;;29.10;92.90;;;;;;5043081;28;19935;-66
2023/09/06 10:59:36;;;;;;;;;;;29.10;94.10;;;;;;5041479;28;19929;-66
2023/09/06 11:02:07;;;;;;;;;;;29.40;93.60;;;;;;5043079;28;19988;-66
2023/09/06 11:04:36;;;;;;;;;;;29.80;92.70;;;;;;5044642;28;20228;-66
2023/09/06 11:07:09;;;;;;;;;;;29.80;92.40;;;;;;5042726;28;19931;-67
2023/09/06 11:09:45;;;;;;;;;;;29.80;92.80;;;;;;5043107;28;19925;-66
2023/09/06 11:12:13;;;;;;;;;;;30.10;93.00;;;;;;5041554;28;23309;-66
2023/09/06 11:14:42;;;;;;;;;;;30.30;92.60;;;;;;5041075;28;19932;-67
2023/09/06 11:17:19;;;;;;;;;;;30.40;92.40;;;;;;5042776;28;19987;-66
2023/09/06 11:19:47;;;;;;;;;;;30.40;91.90;;;;;;5044369;28;19978;-66
2023/09/06 11:22:16;;;;;;;;;;;30.40;91.80;;;;;;5044326;28;20281;-66
2023/09/06 11:24:45;;;;;;;;;;;30.50;91.50;;;;;;5051862;28;20391;-66
2023/09/06 11:27:20;;;;;;;;;;;30.50;90.90;;;;;;5041578;28;19925;-66
2023/09/06 11:29:55;;;;;;;;;;;30.60;90.60;;;;;;5040735;28;20353;-66
2023/09/06 11:32:23;;;;;;;;;;;30.40;91.20;;;;;;5036276;28;19931;-66
2023/09/06 11:34:51;;;;;;;;;;;30.40;91.10;;;;;;5044017;28;20403;-66
2023/09/06 11:37:20;;;;;;;;;;;30.80;91.30;;;;;;5040592;28;19975;-67
2023/09/06 11:39:49;;;;;;;;;;;31.00;90.60;;;;;;5041693;28;19933;-68
2023/09/06 11:42:20;;;;;;;;;;;31.30;90.70;;;;;;5040184;28;19968;-66
2023/09/06 11:44:53;;;;;;;;;;;31.20;89.40;;;;;;5040349;28;19980;-66
2023/09/06 11:47:23;;;;;;;;;;;31.30;89.50;;;;;;5040633;28;20329;-66
2023/09/06 11:49:51;;;;;;;;;;;30.90;89.10;;;;;;5040363;28;19948;-67
2023/09/06 11:52:19;;;;;;;;;;;31.00;91.10;;;;;;5050968;28;19951;-66
2023/09/06 11:54:51;;;;;;;;;;;31.10;89.70;;;;;;5050777;28;19983;-67
2023/09/06 11:57:22;;;;;;;;;;;31.40;89.40;;;;;;5040209;28;19925;-67
2023/09/06 11:59:57;;;;;;;;;;;31.50;89.20;;;;;;5040340;28;19929;-67
2023/09/06 12:02:26;;;;;;;;;;;31.60;89.00;;;;;;5035859;28;20355;-67
2023/09/06 12:05:00;;;;;;;;;;;32.00;89.20;;;;;;5043369;28;19948;-66
2023/09/06 12:07:28;;;;;;;;;;;31.90;87.00;;;;;;5036085;28;19932;-66
2023/09/06 12:09:59;;;;;;;;;;;31.80;86.90;;;;;;5042811;28;19932;-67
2023/09/06 12:12:27;;;;;;;;;;;31.80;86.40;;;;;;5043164;28;19929;-66
2023/09/06 12:14:55;;;;;;;;;;;32.00;86.50;;;;;;5043415;28;19925;-67
2023/09/06 12:17:24;;;;;;;;;;;32.10;87.10;;;;;;5039914;28;19964;-67
2023/09/06 12:19:58;;;;;;;;;;;31.90;85.70;;;;;;5040056;28;19929;-66
2023/09/06 12:22:25;;;;;;;;;;;32.00;86.30;;;;;;5040756;28;20372;-66
2023/09/06 12:24:55;;;;;;;;;;;31.70;85.70;;;;;;5046471;28;19991;-66
2023/09/06 12:27:25;;;;;;;;;;;32.00;85.40;;;;;;5039946;28;19925;-67
2023/09/06 12:29:53;;;;;;;;;;;32.10;84.00;;;;;;5039343;28;19929;-67
2023/09/06 12:32:23;;;;;;;;;;;32.10;83.50;;;;;;5050326;28;19995;-67
2023/09/06 12:34:52;;;;;;;;;;;32.20;85.10;;;;;;5043014;28;19925;-66
2023/09/06 12:37:20;;;;;;;;;;;32.40;83.80;;;;;;5040313;28;20015;-67
2023/09/06 12:39:48;;;;;;;;;;;32.40;84.20;;;;;;5040167;28;19932;-67
2023/09/06 12:42:16;;;;;;;;;;;32.70;83.00;;;;;;5039268;28;19925;-67
2023/09/06 12:44:45;;;;;;;;;;;32.80;82.70;;;;;;5039499;28;19929;-67
2023/09/06 12:47:13;;;;;;;;;;;32.60;83.30;;;;;;5041033;28;20443;-67
2023/09/06 12:49:41;;;;;;;;;;;32.80;83.30;;;;;;5042931;28;19929;-66
2023/09/06 12:52:09;;;;;;;;;;;33.10;83.20;;;;;;5043923;28;19925;-67
2023/09/06 12:54:37;;;;;;;;;;;33.40;80.20;;;;;;5050986;28;19928;-66
2023/09/06 12:57:05;;;;;;;;;;;33.70;80.60;;;;;;5041595;28;19970;-67
2023/09/06 12:59:33;;;;;;;;;;;33.40;80.50;;;;;;5039478;28;19929;-66
2023/09/06 13:02:02;;;;;;;;;;;33.10;81.40;;;;;;5039167;28;19925;-67
2023/09/06 13:04:30;;;;;;;;;;;33.40;81.90;;;;;;5034899;28;19974;-67
2023/09/06 13:06:58;;;;;;;;;;;33.60;82.10;;;;;;5043419;28;19951;-67
2023/09/06 13:09:27;;;;;;;;;;;33.60;80.60;;;;;;5043530;28;19986;-67
2023/09/06 13:11:55;;;;;;;;;;;33.70;78.60;;;;;;5042096;28;19940;-67
2023/09/06 13:14:23;;;;;;;;;;;33.80;77.20;;;;;;5044214;28;19932;-67
2023/09/06 13:16:50;;;;;;;;;;;33.90;78.10;;;;;;5043255;28;19925;-67
2023/09/06 13:19:20;;;;;;;;;;;33.70;77.60;;;;;;5045017;28;19929;-66
2023/09/06 13:21:48;;;;;;;;;;;33.80;77.60;;;;;;5048120;28;19924;-67
2023/09/06 13:24:17;;;;;;;;;;;33.70;75.90;;;;;;5046287;28;19933;-67
2023/09/06 13:26:46;;;;;;;;;;;33.70;75.90;;;;;;5045817;28;19929;-66
2023/09/06 13:29:14;;;;;;;;;;;33.70;75.90;;;;;;5044793;28;20361;-67
2023/09/06 13:31:42;;;;;;;;;;;34.10;76.50;;;;;;5042721;28;19932;-67
2023/09/06 13:34:10;;;;;;;;;;;34.20;73.80;;;;;;5043464;28;19929;-67
2023/09/06 13:36:39;;;;;;;;;;;34.30;73.50;;;;;;5046232;28;19932;-67
2023/09/06 13:39:07;;;;;;;;;;;34.20;73.70;;;;;;5046054;28;19924;-67
2023/09/06 13:41:35;;;;;;;;;;;34.40;72.80;;;;;;5038651;28;19982;-67
2023/09/06 13:44:03;;;;;;;;;;;34.50;72.50;;;;;;5046103;28;19925;-67
2023/09/06 13:46:32;;;;;;;;;;;34.60;72.50;;;;;;5042555;28;19929;-67
2023/09/06 13:49:00;;;;;;;;;;;34.60;73.50;;;;;;5042602;28;19925;-67
2023/09/06 13:51:28;;;;;;;;;;;34.50;74.90;;;;;;5047512;28;19983;-67
2023/09/06 13:53:57;;;;;;;;;;;34.80;75.40;;;;;;5053970;28;19951;-67
2023/09/06 13:56:25;;;;;;;;;;;35.00;73.00;;;;;;5042848;28;19987;-68
2023/09/06 13:58:53;;;;;;;;;;;35.00;71.40;;;;;;5042437;28;19924;-67
2023/09/06 14:01:21;;;;;;;;;;;35.10;72.50;;;;;;5044032;28;19990;-67
2023/09/06 14:03:49;;;;;;;;;;;35.00;73.40;;;;;;5045324;28;20019;-67
2023/09/06 14:06:17;;;;;;;;;;;35.20;73.60;;;;;;5044495;28;19978;-67
2023/09/06 14:08:45;;;;;;;;;;;35.40;72.70;;;;;;5042301;28;19933;-67
2023/09/06 14:11:15;;;;;;;;;;;35.30;73.40;;;;;;5041571;28;19925;-67
2023/09/06 14:13:43;;;;;;;;;;;35.60;73.50;;;;;;5045420;28;19932;-67
2023/09/06 14:16:11;;;;;;;;;;;35.70;71.00;;;;;;5045061;28;19931;-67
2023/09/06 14:18:39;;;;;;;;;;;36.00;71.30;;;;;;5042047;28;19929;-67
2023/09/06 14:21:06;;;;;;;;;;;36.20;70.70;;;;;;5044343;28;19936;-68
2023/09/06 14:23:34;;;;;;;;;;;36.50;69.80;;;;;;5052816;28;19925;-67
2023/09/06 14:26:02;;;;;;;;;;;36.30;68.60;;;;;;5044826;28;19935;-67
2023/09/06 14:28:31;;;;;;;;;;;36.20;69.40;;;;;;5042540;28;19925;-67